createdAt,value
2019-01-09T00:02:29.641Z,86.76
2019-01-09T00:07:48.246Z,86.81
2019-01-09T00:13:06.836Z,87.11
2019-01-09T00:18:25.363Z,87.75
2019-01-09T00:23:43.994Z,88.53
2019-01-09T00:29:02.509Z,88.92
2019-01-09T00:34:21.116Z,89.65
2019-01-09T00:39:39.715Z,88.77
2019-01-09T00:44:58.329Z,88.77
2019-01-09T00:50:16.914Z,88.49
2019-01-09T00:55:35.530Z,87.38
2019-01-09T01:00:54.138Z,87.46
2019-01-09T01:06:52.566Z,87.79
2019-01-09T01:12:49.677Z,88.05
2019-01-09T01:18:48.044Z,88.20
2019-01-09T01:24:45.091Z,88.60
2019-01-09T01:30:43.456Z,89.70
2019-01-09T01:36:41.901Z,90.35
2019-01-09T01:42:38.954Z,90.53
2019-01-09T01:48:36.029Z,90.42
2019-01-09T01:54:33.083Z,90.50
2019-01-09T02:00:31.554Z,89.96
2019-01-09T02:06:29.942Z,90.29
2019-01-09T02:12:28.315Z,92.64
2019-01-09T02:18:26.698Z,91.08
2019-01-09T02:24:25.131Z,92.54
2019-01-09T02:30:22.173Z,92.28
2019-01-09T02:41:11.297Z,93.04
2019-01-09T02:46:29.903Z,93.26
2019-01-09T02:51:48.447Z,93.57
2019-01-09T02:57:07.048Z,93.87
2019-01-09T03:07:56.168Z,93.38
2019-01-09T03:13:14.767Z,92.93
2019-01-09T03:18:33.367Z,92.96
2019-01-09T03:23:51.966Z,92.69
2019-01-09T03:34:43.131Z,92.73
2019-01-09T03:40:01.769Z,93.05
2019-01-09T03:45:20.462Z,92.89
2019-01-09T03:56:09.511Z,92.66
2019-01-09T04:01:28.062Z,92.89
2019-01-09T04:06:46.599Z,92.04
2019-01-09T04:12:05.193Z,92.22
2019-01-09T04:17:24.072Z,92.42
2019-01-09T04:22:42.659Z,92.51
2019-01-09T04:28:01.184Z,93.48
2019-01-09T04:33:19.646Z,93.44
2019-01-09T04:38:38.111Z,92.94
2019-01-09T04:43:56.692Z,93.05
2019-01-09T04:49:15.146Z,93.26
2019-01-09T04:54:33.793Z,93.33
2019-01-09T04:59:52.254Z,93.32
2019-01-09T05:05:10.815Z,93.33
2019-01-09T05:10:29.347Z,94.36
2019-01-09T05:15:48.151Z,94.16
2019-01-09T05:21:06.682Z,94.22
2019-01-09T05:26:25.148Z,94.11
2019-01-09T05:31:43.615Z,93.65
2019-01-09T05:37:09.411Z,93.55
2019-01-09T05:42:22.389Z,93.13
2019-01-09T05:47:40.910Z,94.48
2019-01-09T05:53:18.720Z,95.12
2019-01-09T05:58:37.246Z,95.05
2019-01-09T06:03:55.709Z,94.82
2019-01-09T06:20:15.123Z,95.15
2019-01-09T06:25:33.755Z,95.27
2019-01-09T06:30:52.265Z,94.87
2019-01-09T06:36:10.804Z,95.07
2019-01-09T06:41:29.692Z,95.08
2019-01-09T06:46:48.545Z,94.99
2019-01-09T06:52:07.010Z,95.04
2019-01-09T06:57:25.552Z,95.26
2019-01-09T07:02:44.084Z,95.52
2019-01-09T07:08:02.550Z,95.41
2019-01-09T07:13:21.004Z,95.48
2019-01-09T07:18:39.468Z,95.40
2019-01-09T07:23:58.397Z,95.11
2019-01-09T07:29:16.940Z,94.85
2019-01-09T07:34:35.480Z,94.68
2019-01-09T07:39:53.973Z,94.69
2019-01-09T07:45:12.543Z,94.80
2019-01-09T07:56:24.542Z,94.72
2019-01-09T08:01:43.158Z,94.49
2019-01-09T08:07:01.678Z,94.61
2019-01-09T08:12:20.219Z,94.64
2019-01-09T08:29:04.407Z,94.38
2019-01-09T08:34:22.985Z,94.46
2019-01-09T08:39:41.519Z,94.47
2019-01-09T08:45:00.339Z,94.44
2019-01-09T08:50:18.816Z,94.28
2019-01-09T08:55:37.270Z,94.45
2019-01-09T09:06:28.237Z,94.27
2019-01-09T09:11:46.702Z,94.01
2019-01-09T09:22:37.739Z,93.50
2019-01-09T09:33:26.710Z,92.78
2019-01-09T09:38:45.358Z,92.67
2019-01-09T09:44:03.967Z,92.49
2019-01-09T09:49:22.564Z,91.78
2019-01-09T09:54:41.171Z,92.04
2019-01-09T09:59:59.775Z,91.27
2019-01-09T10:10:49.318Z,91.32
2019-01-09T10:16:07.865Z,90.25
2019-01-09T10:21:26.524Z,89.62
2019-01-09T10:26:45.057Z,90.14
2019-01-09T10:32:03.657Z,90.17
2019-01-09T10:37:22.250Z,89.11
2019-01-09T10:42:40.862Z,88.08
2019-01-09T10:47:59.464Z,88.10
2019-01-09T10:53:18.040Z,86.58
2019-01-09T11:04:07.627Z,84.14
2019-01-09T11:09:26.186Z,82.74
2019-01-09T11:14:44.762Z,80.80
2019-01-09T11:25:54.535Z,80.31
2019-01-09T11:31:13.068Z,79.59
2019-01-09T11:36:31.611Z,79.87
2019-01-09T11:41:50.136Z,77.91
2019-01-09T11:47:08.729Z,77.42
2019-01-09T11:52:27.175Z,75.54
2019-01-09T11:57:45.638Z,75.45
2019-01-09T12:03:04.241Z,76.21
2019-01-09T12:08:22.780Z,75.42
2019-01-09T12:13:41.241Z,73.70
2019-01-09T12:18:59.710Z,72.08
2019-01-09T12:24:37.580Z,74.01
2019-01-09T12:29:56.113Z,73.27
2019-01-09T12:35:14.720Z,73.22
2019-01-09T12:40:33.252Z,72.24
2019-01-09T12:45:51.782Z,72.07
2019-01-09T12:51:10.319Z,71.73
2019-01-09T12:56:28.783Z,73.68
2019-01-09T13:07:17.976Z,70.00
2019-01-09T13:12:36.520Z,69.32
2019-01-09T13:17:55.060Z,69.83
2019-01-09T13:23:13.816Z,69.53
2019-01-09T13:28:32.396Z,69.48
2019-01-09T13:33:50.791Z,66.33
2019-01-09T13:39:49.395Z,67.35
2019-01-09T13:45:47.777Z,66.04
2019-01-09T13:51:06.735Z,66.54
2019-01-09T13:56:25.199Z,67.98
2019-01-09T14:01:43.726Z,68.41
2019-01-09T14:07:02.275Z,67.53
2019-01-09T14:12:20.740Z,68.67
2019-01-09T14:17:39.204Z,69.33
2019-01-09T14:22:57.736Z,68.46
2019-01-09T14:28:16.341Z,68.44
2019-01-09T14:33:34.969Z,68.00
2019-01-09T14:38:53.505Z,67.95
2019-01-09T14:44:12.085Z,69.14
2019-01-09T14:49:57.905Z,69.67
2019-01-09T14:55:56.282Z,70.87
2019-01-09T15:01:14.747Z,69.29
2019-01-09T15:06:33.360Z,68.06
2019-01-09T15:11:51.961Z,67.35
2019-01-09T15:17:10.597Z,67.43
2019-01-09T15:22:29.125Z,67.21
2019-01-09T15:27:47.751Z,67.41
2019-01-09T15:33:06.346Z,67.91
2019-01-09T15:38:24.867Z,68.39
2019-01-09T15:43:43.644Z,68.35
2019-01-09T15:49:02.184Z,68.08
2019-01-09T15:54:20.712Z,68.35
2019-01-09T15:59:39.179Z,68.72
2019-01-09T16:04:57.671Z,69.75
2019-01-09T16:10:35.513Z,69.46
2019-01-09T16:15:53.968Z,70.20
2019-01-09T16:26:43.016Z,70.96
2019-01-09T16:32:01.477Z,71.25
2019-01-09T16:37:20.021Z,71.61
2019-01-09T16:42:38.496Z,71.91
2019-01-09T16:53:29.608Z,72.33
2019-01-09T16:58:48.215Z,73.32
2019-01-09T17:04:06.822Z,73.69
2019-01-09T17:09:25.284Z,73.95
2019-01-09T17:14:43.744Z,74.06
2019-01-09T17:20:02.280Z,74.26
2019-01-09T17:25:22.608Z,73.90
2019-01-09T17:36:13.721Z,74.61
2019-01-09T17:41:51.623Z,75.15
2019-01-09T17:47:10.084Z,75.87
2019-01-09T17:52:28.630Z,76.22
2019-01-09T18:03:19.754Z,76.57
2019-01-09T18:25:53.789Z,74.63
2019-01-09T18:31:52.165Z,74.47
2019-01-09T18:37:50.806Z,74.34
2019-01-09T18:43:49.173Z,73.92
2019-01-09T18:49:47.548Z,72.90
2019-01-09T18:55:45.898Z,73.96
2019-01-09T19:01:25.146Z,73.13
2019-01-09T19:06:43.752Z,74.14
2019-01-09T19:12:02.375Z,75.34
2019-01-09T19:17:20.978Z,74.45
2019-01-09T19:22:39.596Z,73.97
2019-01-09T19:27:59.928Z,72.95
2019-01-09T19:33:18.550Z,71.88
2019-01-09T19:38:37.165Z,73.12
2019-01-09T19:43:55.762Z,72.47
2019-01-09T19:49:14.365Z,74.14
2019-01-09T19:54:33.312Z,73.40
2019-01-09T20:06:03.908Z,74.82
2019-01-09T20:11:26.536Z,74.71
2019-01-09T20:16:43.065Z,75.04
2019-01-09T20:22:01.696Z,74.51
2019-01-09T20:27:20.286Z,74.43
2019-01-09T20:33:31.542Z,74.01
2019-01-09T20:38:50.207Z,74.35
2019-01-09T20:44:08.788Z,73.70
2019-01-09T20:49:27.348Z,73.79
2019-01-09T20:54:46.086Z,73.57
2019-01-09T21:00:44.781Z,73.46
2019-01-09T21:06:03.344Z,73.95
2019-01-09T21:11:21.931Z,74.12
2019-01-09T21:16:40.542Z,73.95
2019-01-09T21:21:59.095Z,74.32
2019-01-09T21:27:17.621Z,74.73
2019-01-09T21:32:36.228Z,75.19
2019-01-09T21:37:54.758Z,75.04
2019-01-09T21:43:32.637Z,75.56
2019-01-09T21:48:51.104Z,75.59
2019-01-09T21:54:09.565Z,76.28
2019-01-09T21:59:28.025Z,76.36
2019-01-09T22:05:06.185Z,76.52
2019-01-09T22:11:04.558Z,76.34
2019-01-09T22:16:23.028Z,76.42
2019-01-09T22:27:14.077Z,76.24
2019-01-09T22:32:32.695Z,75.84
2019-01-09T22:37:51.235Z,76.10
2019-01-09T22:43:09.856Z,75.42
2019-01-09T22:48:28.316Z,75.74
2019-01-09T22:53:46.845Z,76.28
2019-01-09T22:59:05.465Z,76.65
2019-01-09T23:04:24.136Z,76.36
2019-01-09T23:10:02.084Z,76.53
2019-01-09T23:15:20.615Z,77.34
2019-01-09T23:20:39.232Z,77.34
2019-01-09T23:25:58.054Z,76.82
2019-01-09T23:31:16.654Z,77.33
2019-01-09T23:36:35.353Z,76.96
2019-01-09T23:41:53.944Z,77.03
2019-01-09T23:47:12.480Z,77.57
2019-01-09T23:52:31.020Z,77.10
